sensor_id;sensor_type;location;lat;lon;timestamp;temperature;humidity
563;DHT22;266;49.514;8.294;2023-03-23T00:00:48;14.80;99.90
563;DHT22;266;49.514;8.294;2023-03-23T00:03:15;14.80;99.90
563;DHT22;266;49.514;8.294;2023-03-23T00:05:44;14.80;99.90
563;DHT22;266;49.514;8.294;2023-03-23T00:08:16;14.80;99.90
563;DHT22;266;49.514;8.294;2023-03-23T00:10:42;14.80;99.90
563;DHT22;266;49.514;8.294;2023-03-23T00:13:09;14.70;99.90
563;DHT22;266;49.514;8.294;2023-03-23T00:15:36;14.60;99.90
563;DHT22;266;49.514;8.294;2023-03-23T00:18:07;14.60;99.90
563;DHT22;266;49.514;8.294;2023-03-23T00:20:33;14.50;99.90
563;DHT22;266;49.514;8.294;2023-03-23T00:23:07;14.50;99.90
563;DHT22;266;49.514;8.294;2023-03-23T00:25:34;14.50;99.90
563;DHT22;266;49.514;8.294;2023-03-23T00:28:01;14.40;99.90
563;DHT22;266;49.514;8.294;2023-03-23T00:30:28;14.40;99.90
563;DHT22;266;49.514;8.294;2023-03-23T00:32:55;14.40;99.90
563;DHT22;266;49.514;8.294;2023-03-23T00:35:23;14.50;99.90
563;DHT22;266;49.514;8.294;2023-03-23T00:37:50;14.50;99.90
563;DHT22;266;49.514;8.294;2023-03-23T00:40:18;14.40;99.90
563;DHT22;266;49.514;8.294;2023-03-23T00:42:45;14.40;99.90
563;DHT22;266;49.514;8.294;2023-03-23T00:45:14;14.40;99.90
563;DHT22;266;49.514;8.294;2023-03-23T00:47:42;14.40;99.90
563;DHT22;266;49.514;8.294;2023-03-23T00:50:12;14.40;99.90
563;DHT22;266;49.514;8.294;2023-03-23T00:52:40;14.40;99.90
563;DHT22;266;49.514;8.294;2023-03-23T00:55:07;14.30;99.90
563;DHT22;266;49.514;8.294;2023-03-23T00:57:35;14.30;99.90
563;DHT22;266;49.514;8.294;2023-03-23T01:00:03;14.30;99.90
563;DHT22;266;49.514;8.294;2023-03-23T01:02:34;14.20;99.90
563;DHT22;266;49.514;8.294;2023-03-23T01:05:01;14.30;99.90
563;DHT22;266;49.514;8.294;2023-03-23T01:07:28;14.20;99.90
563;DHT22;266;49.514;8.294;2023-03-23T01:09:56;14.20;99.90
563;DHT22;266;49.514;8.294;2023-03-23T01:12:23;14.30;99.90
563;DHT22;266;49.514;8.294;2023-03-23T01:14:52;14.30;99.90
563;DHT22;266;49.514;8.294;2023-03-23T01:17:19;14.30;99.90
563;DHT22;266;49.514;8.294;2023-03-23T01:19:46;14.30;99.90
563;DHT22;266;49.514;8.294;2023-03-23T01:22:13;14.40;99.90
563;DHT22;266;49.514;8.294;2023-03-23T01:24:40;14.40;99.90
563;DHT22;266;49.514;8.294;2023-03-23T01:27:07;14.50;99.90
563;DHT22;266;49.514;8.294;2023-03-23T01:29:34;14.50;99.90
563;DHT22;266;49.514;8.294;2023-03-23T01:32:02;14.50;99.90
563;DHT22;266;49.514;8.294;2023-03-23T01:34:29;14.60;99.90
563;DHT22;266;49.514;8.294;2023-03-23T01:36:57;14.50;99.90
563;DHT22;266;49.514;8.294;2023-03-23T01:39:23;14.50;99.90
563;DHT22;266;49.514;8.294;2023-03-23T01:41:50;14.50;99.90
563;DHT22;266;49.514;8.294;2023-03-23T01:47:23;14.50;99.90
563;DHT22;266;49.514;8.294;2023-03-23T01:49:53;14.50;99.90
563;DHT22;266;49.514;8.294;2023-03-23T01:52:23;14.50;99.90
563;DHT22;266;49.514;8.294;2023-03-23T01:54:53;14.50;99.90
563;DHT22;266;49.514;8.294;2023-03-23T01:57:23;14.50;99.90
563;DHT22;266;49.514;8.294;2023-03-23T01:59:53;14.40;99.90
563;DHT22;266;49.514;8.294;2023-03-23T02:02:24;14.40;99.90
563;DHT22;266;49.514;8.294;2023-03-23T02:04:57;14.50;99.90
563;DHT22;266;49.514;8.294;2023-03-23T02:07:26;14.50;99.90
563;DHT22;266;49.514;8.294;2023-03-23T02:09:53;14.40;99.90
563;DHT22;266;49.514;8.294;2023-03-23T02:12:20;14.40;99.90
563;DHT22;266;49.514;8.294;2023-03-23T02:14:46;14.40;99.90
563;DHT22;266;49.514;8.294;2023-03-23T02:17:20;14.40;99.90
563;DHT22;266;49.514;8.294;2023-03-23T02:20:06;14.40;99.90
563;DHT22;266;49.514;8.294;2023-03-23T02:22:49;14.40;99.90
563;DHT22;266;49.514;8.294;2023-03-23T02:25:32;14.40;99.90
563;DHT22;266;49.514;8.294;2023-03-23T02:28:28;14.30;99.90
563;DHT22;266;49.514;8.294;2023-03-23T02:31:18;14.30;99.90
563;DHT22;266;49.514;8.294;2023-03-23T02:33:57;14.30;99.90
563;DHT22;266;49.514;8.294;2023-03-23T02:36:32;14.20;99.90
563;DHT22;266;49.514;8.294;2023-03-23T02:39:05;14.20;99.90
563;DHT22;266;49.514;8.294;2023-03-23T02:41:39;14.20;99.90
563;DHT22;266;49.514;8.294;2023-03-23T02:44:08;14.20;99.90
563;DHT22;266;49.514;8.294;2023-03-23T02:46:36;14.30;99.90
563;DHT22;266;49.514;8.294;2023-03-23T02:49:07;14.30;99.90
563;DHT22;266;49.514;8.294;2023-03-23T02:51:37;14.20;99.90
563;DHT22;266;49.514;8.294;2023-03-23T02:54:05;14.40;99.90
563;DHT22;266;49.514;8.294;2023-03-23T02:56:33;14.30;99.90
563;DHT22;266;49.514;8.294;2023-03-23T02:59:01;14.30;99.90
563;DHT22;266;49.514;8.294;2023-03-23T03:01:51;14.40;99.90
563;DHT22;266;49.514;8.294;2023-03-23T03:04:22;14.40;99.90
563;DHT22;266;49.514;8.294;2023-03-23T03:07:01;14.30;99.90
563;DHT22;266;49.514;8.294;2023-03-23T03:09:40;14.20;99.90
563;DHT22;266;49.514;8.294;2023-03-23T03:12:14;14.20;99.90
563;DHT22;266;49.514;8.294;2023-03-23T03:14:49;14.20;99.90
563;DHT22;266;49.514;8.294;2023-03-23T03:17:20;14.20;99.90
563;DHT22;266;49.514;8.294;2023-03-23T03:19:54;14.20;99.90
563;DHT22;266;49.514;8.294;2023-03-23T03:22:23;14.20;99.90
563;DHT22;266;49.514;8.294;2023-03-23T03:24:55;14.30;99.90
563;DHT22;266;49.514;8.294;2023-03-23T03:27:23;14.30;99.90
563;DHT22;266;49.514;8.294;2023-03-23T03:29:54;14.40;99.90
563;DHT22;266;49.514;8.294;2023-03-23T03:32:25;14.30;99.90
563;DHT22;266;49.514;8.294;2023-03-23T03:34:59;14.40;99.90
563;DHT22;266;49.514;8.294;2023-03-23T03:37:26;14.40;99.90
563;DHT22;266;49.514;8.294;2023-03-23T03:39:53;14.40;99.90
563;DHT22;266;49.514;8.294;2023-03-23T03:42:21;14.40;99.90
563;DHT22;266;49.514;8.294;2023-03-23T03:44:47;14.50;99.90
563;DHT22;266;49.514;8.294;2023-03-23T03:47:14;14.50;99.90
563;DHT22;266;49.514;8.294;2023-03-23T03:49:41;14.60;99.90
563;DHT22;266;49.514;8.294;2023-03-23T03:52:09;14.60;99.90
563;DHT22;266;49.514;8.294;2023-03-23T03:54:36;14.60;99.90
563;DHT22;266;49.514;8.294;2023-03-23T03:57:03;14.50;99.90
563;DHT22;266;49.514;8.294;2023-03-23T03:59:30;14.50;99.90
563;DHT22;266;49.514;8.294;2023-03-23T04:01:58;14.50;99.90
563;DHT22;266;49.514;8.294;2023-03-23T04:04:24;14.50;99.90
563;DHT22;266;49.514;8.294;2023-03-23T04:06:51;14.50;99.90
563;DHT22;266;49.514;8.294;2023-03-23T04:09:20;14.50;99.90
563;DHT22;266;49.514;8.294;2023-03-23T04:11:47;14.50;99.90
563;DHT22;266;49.514;8.294;2023-03-23T04:14:14;14.50;99.90
563;DHT22;266;49.514;8.294;2023-03-23T04:16:41;14.50;99.90
563;DHT22;266;49.514;8.294;2023-03-23T04:19:09;14.40;99.90
563;DHT22;266;49.514;8.294;2023-03-23T04:21:37;14.40;99.90
563;DHT22;266;49.514;8.294;2023-03-23T04:24:05;14.30;99.90
563;DHT22;266;49.514;8.294;2023-03-23T04:26:33;14.30;99.90
563;DHT22;266;49.514;8.294;2023-03-23T04:29:00;14.30;99.90
563;DHT22;266;49.514;8.294;2023-03-23T04:31:28;14.20;99.90
563;DHT22;266;49.514;8.294;2023-03-23T04:33:55;14.30;99.90
563;DHT22;266;49.514;8.294;2023-03-23T04:36:23;14.20;99.90
563;DHT22;266;49.514;8.294;2023-03-23T04:38:50;14.20;99.90
563;DHT22;266;49.514;8.294;2023-03-23T04:41:20;14.30;99.90
563;DHT22;266;49.514;8.294;2023-03-23T04:43:48;14.20;99.90
563;DHT22;266;49.514;8.294;2023-03-23T04:46:18;14.10;99.90
563;DHT22;266;49.514;8.294;2023-03-23T04:48:47;14.00;99.90
563;DHT22;266;49.514;8.294;2023-03-23T04:51:13;13.90;99.90
563;DHT22;266;49.514;8.294;2023-03-23T04:53:40;13.90;99.90
563;DHT22;266;49.514;8.294;2023-03-23T04:56:07;14.00;99.90
563;DHT22;266;49.514;8.294;2023-03-23T04:58:34;14.10;99.90
563;DHT22;266;49.514;8.294;2023-03-23T05:01:02;14.30;99.90
563;DHT22;266;49.514;8.294;2023-03-23T05:03:30;14.30;99.90
563;DHT22;266;49.514;8.294;2023-03-23T05:05:57;14.30;99.90
563;DHT22;266;49.514;8.294;2023-03-23T05:08:27;14.30;99.90
563;DHT22;266;49.514;8.294;2023-03-23T05:10:55;14.30;99.90
563;DHT22;266;49.514;8.294;2023-03-23T05:13:22;14.30;99.90
563;DHT22;266;49.514;8.294;2023-03-23T05:15:50;14.20;99.90
563;DHT22;266;49.514;8.294;2023-03-23T05:18:18;14.30;99.90
563;DHT22;266;49.514;8.294;2023-03-23T05:20:46;14.20;99.90
563;DHT22;266;49.514;8.294;2023-03-23T05:23:14;14.20;99.90
563;DHT22;266;49.514;8.294;2023-03-23T05:25:41;14.10;99.90
563;DHT22;266;49.514;8.294;2023-03-23T05:28:09;14.10;99.90
563;DHT22;266;49.514;8.294;2023-03-23T05:30:38;14.10;99.90
563;DHT22;266;49.514;8.294;2023-03-23T05:33:06;14.00;99.90
563;DHT22;266;49.514;8.294;2023-03-23T05:35:34;14.00;99.90
563;DHT22;266;49.514;8.294;2023-03-23T05:38:01;14.00;99.90
563;DHT22;266;49.514;8.294;2023-03-23T05:40:29;14.00;99.90
563;DHT22;266;49.514;8.294;2023-03-23T05:42:56;14.00;99.90
563;DHT22;266;49.514;8.294;2023-03-23T05:45:26;13.90;99.90
563;DHT22;266;49.514;8.294;2023-03-23T05:47:53;13.90;99.90
563;DHT22;266;49.514;8.294;2023-03-23T05:50:20;13.90;99.90
563;DHT22;266;49.514;8.294;2023-03-23T05:52:48;14.00;99.90
563;DHT22;266;49.514;8.294;2023-03-23T05:55:16;13.90;99.90
563;DHT22;266;49.514;8.294;2023-03-23T05:57:43;13.90;99.90
563;DHT22;266;49.514;8.294;2023-03-23T06:00:10;13.90;99.90
563;DHT22;266;49.514;8.294;2023-03-23T06:02:46;13.90;99.90
563;DHT22;266;49.514;8.294;2023-03-23T06:05:14;13.90;99.90
563;DHT22;266;49.514;8.294;2023-03-23T06:07:42;13.90;99.90
563;DHT22;266;49.514;8.294;2023-03-23T06:10:10;13.90;99.90
563;DHT22;266;49.514;8.294;2023-03-23T06:12:38;13.90;99.90
563;DHT22;266;49.514;8.294;2023-03-23T06:15:06;13.90;99.90
563;DHT22;266;49.514;8.294;2023-03-23T06:17:34;13.90;99.90
563;DHT22;266;49.514;8.294;2023-03-23T06:20:02;13.90;99.90
563;DHT22;266;49.514;8.294;2023-03-23T06:22:35;13.90;99.90
563;DHT22;266;49.514;8.294;2023-03-23T06:25:02;13.90;99.90
563;DHT22;266;49.514;8.294;2023-03-23T06:27:30;13.90;99.90
563;DHT22;266;49.514;8.294;2023-03-23T06:29:57;13.90;99.90
563;DHT22;266;49.514;8.294;2023-03-23T06:32:25;13.90;99.90
563;DHT22;266;49.514;8.294;2023-03-23T06:35:09;13.90;99.90
563;DHT22;266;49.514;8.294;2023-03-23T06:37:37;14.00;99.90
563;DHT22;266;49.514;8.294;2023-03-23T06:40:05;14.00;99.90
563;DHT22;266;49.514;8.294;2023-03-23T06:42:32;14.00;99.90
563;DHT22;266;49.514;8.294;2023-03-23T06:45:00;14.00;99.90
563;DHT22;266;49.514;8.294;2023-03-23T06:47:28;14.00;99.90
563;DHT22;266;49.514;8.294;2023-03-23T06:49:55;14.00;99.90
563;DHT22;266;49.514;8.294;2023-03-23T06:52:24;13.90;99.90
563;DHT22;266;49.514;8.294;2023-03-23T06:54:51;13.90;99.90
563;DHT22;266;49.514;8.294;2023-03-23T06:57:21;13.90;99.90
563;DHT22;266;49.514;8.294;2023-03-23T06:59:48;13.80;99.90
563;DHT22;266;49.514;8.294;2023-03-23T07:02:15;13.80;99.90
563;DHT22;266;49.514;8.294;2023-03-23T07:04:42;13.90;99.90
563;DHT22;266;49.514;8.294;2023-03-23T07:07:10;13.80;99.90
563;DHT22;266;49.514;8.294;2023-03-23T07:09:41;13.80;99.90
563;DHT22;266;49.514;8.294;2023-03-23T07:12:08;13.70;99.90
563;DHT22;266;49.514;8.294;2023-03-23T07:14:35;13.70;99.90
563;DHT22;266;49.514;8.294;2023-03-23T07:17:03;13.70;99.90
563;DHT22;266;49.514;8.294;2023-03-23T07:19:30;13.70;99.90
563;DHT22;266;49.514;8.294;2023-03-23T07:21:57;13.60;99.90
563;DHT22;266;49.514;8.294;2023-03-23T07:24:24;13.70;99.90
563;DHT22;266;49.514;8.294;2023-03-23T07:26:53;13.60;99.90
563;DHT22;266;49.514;8.294;2023-03-23T07:29:20;13.60;99.90
563;DHT22;266;49.514;8.294;2023-03-23T07:31:47;13.60;99.90
563;DHT22;266;49.514;8.294;2023-03-23T07:34:14;13.60;99.90
563;DHT22;266;49.514;8.294;2023-03-23T07:36:41;13.60;99.90
563;DHT22;266;49.514;8.294;2023-03-23T07:39:08;13.60;99.90
563;DHT22;266;49.514;8.294;2023-03-23T07:41:34;13.60;99.90
563;DHT22;266;49.514;8.294;2023-03-23T07:44:03;13.60;99.90
563;DHT22;266;49.514;8.294;2023-03-23T07:46:31;13.60;99.90
563;DHT22;266;49.514;8.294;2023-03-23T07:48:59;13.60;99.90
563;DHT22;266;49.514;8.294;2023-03-23T07:51:30;13.60;99.90
563;DHT22;266;49.514;8.294;2023-03-23T07:53:57;13.60;99.90
563;DHT22;266;49.514;8.294;2023-03-23T07:56:24;13.50;99.90
563;DHT22;266;49.514;8.294;2023-03-23T07:58:51;13.50;99.90
563;DHT22;266;49.514;8.294;2023-03-23T08:01:20;13.50;99.90
563;DHT22;266;49.514;8.294;2023-03-23T08:03:48;13.40;99.90
563;DHT22;266;49.514;8.294;2023-03-23T08:06:15;13.50;99.90
563;DHT22;266;49.514;8.294;2023-03-23T08:08:42;13.50;99.90
563;DHT22;266;49.514;8.294;2023-03-23T08:11:09;13.50;99.90
563;DHT22;266;49.514;8.294;2023-03-23T08:13:36;13.50;99.90
563;DHT22;266;49.514;8.294;2023-03-23T08:16:04;13.50;99.90
563;DHT22;266;49.514;8.294;2023-03-23T08:18:33;13.60;99.90
563;DHT22;266;49.514;8.294;2023-03-23T08:21:00;13.50;99.90
563;DHT22;266;49.514;8.294;2023-03-23T08:23:30;13.50;99.90
563;DHT22;266;49.514;8.294;2023-03-23T08:25:58;13.60;99.90
563;DHT22;266;49.514;8.294;2023-03-23T08:28:25;13.60;99.90
563;DHT22;266;49.514;8.294;2023-03-23T08:30:53;13.70;99.90
563;DHT22;266;49.514;8.294;2023-03-23T08:33:20;13.60;99.90
563;DHT22;266;49.514;8.294;2023-03-23T08:35:55;13.70;99.90
563;DHT22;266;49.514;8.294;2023-03-23T08:38:23;13.70;99.90
563;DHT22;266;49.514;8.294;2023-03-23T08:40:50;13.70;99.90
563;DHT22;266;49.514;8.294;2023-03-23T08:43:18;13.70;99.90
563;DHT22;266;49.514;8.294;2023-03-23T08:45:44;13.80;99.90
563;DHT22;266;49.514;8.294;2023-03-23T08:48:12;13.80;99.90
563;DHT22;266;49.514;8.294;2023-03-23T08:50:38;13.80;99.90
563;DHT22;266;49.514;8.294;2023-03-23T08:53:07;13.80;99.90
563;DHT22;266;49.514;8.294;2023-03-23T08:55:34;13.80;99.90
563;DHT22;266;49.514;8.294;2023-03-23T08:58:01;13.90;99.90
563;DHT22;266;49.514;8.294;2023-03-23T09:00:29;13.90;99.90
563;DHT22;266;49.514;8.294;2023-03-23T09:02:56;14.00;99.90
563;DHT22;266;49.514;8.294;2023-03-23T09:05:24;14.10;99.90
563;DHT22;266;49.514;8.294;2023-03-23T09:07:54;14.10;99.90
563;DHT22;266;49.514;8.294;2023-03-23T09:10:23;14.20;99.90
563;DHT22;266;49.514;8.294;2023-03-23T09:12:52;14.30;99.90
563;DHT22;266;49.514;8.294;2023-03-23T09:15:19;14.40;99.90
563;DHT22;266;49.514;8.294;2023-03-23T09:17:48;14.50;99.90
563;DHT22;266;49.514;8.294;2023-03-23T09:20:18;14.50;99.90
563;DHT22;266;49.514;8.294;2023-03-23T09:22:47;14.40;99.90
563;DHT22;266;49.514;8.294;2023-03-23T09:25:17;14.40;99.90
563;DHT22;266;49.514;8.294;2023-03-23T09:27:46;14.40;99.90
563;DHT22;266;49.514;8.294;2023-03-23T09:30:15;14.30;99.90
563;DHT22;266;49.514;8.294;2023-03-23T09:32:41;14.30;99.90
563;DHT22;266;49.514;8.294;2023-03-23T09:35:09;14.20;99.90
563;DHT22;266;49.514;8.294;2023-03-23T09:37:38;14.10;99.90
563;DHT22;266;49.514;8.294;2023-03-23T09:40:07;14.00;99.90
563;DHT22;266;49.514;8.294;2023-03-23T09:42:44;13.90;99.90
563;DHT22;266;49.514;8.294;2023-03-23T09:45:20;13.80;99.90
563;DHT22;266;49.514;8.294;2023-03-23T09:48:06;13.80;99.90
563;DHT22;266;49.514;8.294;2023-03-23T09:50:40;13.80;99.90
563;DHT22;266;49.514;8.294;2023-03-23T09:53:13;13.80;99.90
563;DHT22;266;49.514;8.294;2023-03-23T09:55:41;13.80;99.90
563;DHT22;266;49.514;8.294;2023-03-23T09:58:14;13.90;99.90
563;DHT22;266;49.514;8.294;2023-03-23T10:00:47;13.70;99.90
563;DHT22;266;49.514;8.294;2023-03-23T10:03:17;13.70;99.90
563;DHT22;266;49.514;8.294;2023-03-23T10:05:46;13.80;99.90
563;DHT22;266;49.514;8.294;2023-03-23T10:08:15;13.90;99.90
563;DHT22;266;49.514;8.294;2023-03-23T10:10:57;14.00;99.90
563;DHT22;266;49.514;8.294;2023-03-23T10:13:35;14.20;99.90
563;DHT22;266;49.514;8.294;2023-03-23T10:16:10;14.40;99.90
563;DHT22;266;49.514;8.294;2023-03-23T10:18:45;14.40;99.90
563;DHT22;266;49.514;8.294;2023-03-23T10:21:16;14.40;99.90
563;DHT22;266;49.514;8.294;2023-03-23T10:23:54;14.40;99.90
563;DHT22;266;49.514;8.294;2023-03-23T10:26:37;14.50;99.90
563;DHT22;266;49.514;8.294;2023-03-23T10:29:14;14.50;99.90
563;DHT22;266;49.514;8.294;2023-03-23T10:31:46;14.70;99.90
563;DHT22;266;49.514;8.294;2023-03-23T10:34:22;15.00;99.90
563;DHT22;266;49.514;8.294;2023-03-23T10:37:00;15.20;99.90
563;DHT22;266;49.514;8.294;2023-03-23T10:39:31;15.30;99.90
563;DHT22;266;49.514;8.294;2023-03-23T10:42:00;15.20;99.90
563;DHT22;266;49.514;8.294;2023-03-23T10:44:35;15.10;99.90
563;DHT22;266;49.514;8.294;2023-03-23T10:47:06;14.90;99.90
563;DHT22;266;49.514;8.294;2023-03-23T10:49:38;14.70;99.90
563;DHT22;266;49.514;8.294;2023-03-23T10:52:26;14.70;99.90
563;DHT22;266;49.514;8.294;2023-03-23T10:54:56;14.70;99.90
563;DHT22;266;49.514;8.294;2023-03-23T10:57:26;14.60;99.90
563;DHT22;266;49.514;8.294;2023-03-23T10:59:59;14.60;99.90
563;DHT22;266;49.514;8.294;2023-03-23T11:02:37;14.60;99.90
563;DHT22;266;49.514;8.294;2023-03-23T11:05:15;14.60;99.90
563;DHT22;266;49.514;8.294;2023-03-23T11:07:51;14.70;99.90
563;DHT22;266;49.514;8.294;2023-03-23T11:10:22;14.60;99.90
563;DHT22;266;49.514;8.294;2023-03-23T11:12:51;14.50;99.90
563;DHT22;266;49.514;8.294;2023-03-23T11:15:27;14.30;99.90
563;DHT22;266;49.514;8.294;2023-03-23T11:18:00;14.20;99.90
563;DHT22;266;49.514;8.294;2023-03-23T11:20:29;14.10;99.90
563;DHT22;266;49.514;8.294;2023-03-23T11:22:56;14.20;99.90
563;DHT22;266;49.514;8.294;2023-03-23T11:25:24;14.20;99.90
563;DHT22;266;49.514;8.294;2023-03-23T11:27:52;14.20;99.90
563;DHT22;266;49.514;8.294;2023-03-23T11:30:23;14.30;99.90
563;DHT22;266;49.514;8.294;2023-03-23T11:32:51;14.40;99.90
563;DHT22;266;49.514;8.294;2023-03-23T11:35:23;14.40;99.90
563;DHT22;266;49.514;8.294;2023-03-23T11:37:57;14.50;99.90
563;DHT22;266;49.514;8.294;2023-03-23T11:40:26;14.60;99.90
563;DHT22;266;49.514;8.294;2023-03-23T11:42:58;14.60;99.90
563;DHT22;266;49.514;8.294;2023-03-23T11:45:32;14.70;99.90
563;DHT22;266;49.514;8.294;2023-03-23T11:48:14;14.70;99.90
563;DHT22;266;49.514;8.294;2023-03-23T11:50:50;14.80;99.90
563;DHT22;266;49.514;8.294;2023-03-23T11:53:25;14.80;99.90
563;DHT22;266;49.514;8.294;2023-03-23T11:56:01;14.90;99.90
563;DHT22;266;49.514;8.294;2023-03-23T11:58:32;15.00;99.90
563;DHT22;266;49.514;8.294;2023-03-23T12:01:04;15.00;99.90
563;DHT22;266;49.514;8.294;2023-03-23T12:03:56;15.10;99.90
563;DHT22;266;49.514;8.294;2023-03-23T12:06:32;15.10;99.90
563;DHT22;266;49.514;8.294;2023-03-23T12:09:11;15.10;99.90
563;DHT22;266;49.514;8.294;2023-03-23T12:11:49;15.10;99.90
563;DHT22;266;49.514;8.294;2023-03-23T12:14:24;15.10;99.90
563;DHT22;266;49.514;8.294;2023-03-23T12:17:00;15.10;99.90
563;DHT22;266;49.514;8.294;2023-03-23T12:19:39;15.10;99.90
563;DHT22;266;49.514;8.294;2023-03-23T12:22:19;15.20;99.90
563;DHT22;266;49.514;8.294;2023-03-23T12:24:59;15.20;99.90
563;DHT22;266;49.514;8.294;2023-03-23T12:27:35;15.20;99.90
563;DHT22;266;49.514;8.294;2023-03-23T12:30:22;15.20;99.90
563;DHT22;266;49.514;8.294;2023-03-23T12:33:02;15.30;99.90
563;DHT22;266;49.514;8.294;2023-03-23T12:35:42;15.30;99.90
563;DHT22;266;49.514;8.294;2023-03-23T12:38:23;15.30;99.90
563;DHT22;266;49.514;8.294;2023-03-23T12:41:04;15.30;99.90
563;DHT22;266;49.514;8.294;2023-03-23T12:43:38;15.30;99.90
563;DHT22;266;49.514;8.294;2023-03-23T12:46:20;15.30;99.90
563;DHT22;266;49.514;8.294;2023-03-23T12:48:52;15.20;99.90
563;DHT22;266;49.514;8.294;2023-03-23T12:51:26;15.30;99.90
563;DHT22;266;49.514;8.294;2023-03-23T12:53:58;15.40;99.90
563;DHT22;266;49.514;8.294;2023-03-23T12:56:33;15.50;99.90
563;DHT22;266;49.514;8.294;2023-03-23T12:59:09;15.60;99.90
563;DHT22;266;49.514;8.294;2023-03-23T13:01:41;15.70;99.90
563;DHT22;266;49.514;8.294;2023-03-23T13:04:11;15.70;99.90
563;DHT22;266;49.514;8.294;2023-03-23T13:06:41;15.80;99.90
563;DHT22;266;49.514;8.294;2023-03-23T13:09:15;15.80;99.90
563;DHT22;266;49.514;8.294;2023-03-23T13:11:46;15.80;99.90
563;DHT22;266;49.514;8.294;2023-03-23T13:14:23;15.70;99.90
563;DHT22;266;49.514;8.294;2023-03-23T13:17:05;15.60;99.90
563;DHT22;266;49.514;8.294;2023-03-23T13:19:39;15.60;99.90
563;DHT22;266;49.514;8.294;2023-03-23T13:22:11;15.50;99.90
563;DHT22;266;49.514;8.294;2023-03-23T13:24:50;15.50;99.90
563;DHT22;266;49.514;8.294;2023-03-23T13:27:22;15.40;99.90
563;DHT22;266;49.514;8.294;2023-03-23T13:29:49;15.40;99.90
563;DHT22;266;49.514;8.294;2023-03-23T13:32:18;15.30;99.90
563;DHT22;266;49.514;8.294;2023-03-23T13:34:46;15.30;99.90
563;DHT22;266;49.514;8.294;2023-03-23T13:37:21;15.30;99.90
563;DHT22;266;49.514;8.294;2023-03-23T13:39:52;15.20;99.90
563;DHT22;266;49.514;8.294;2023-03-23T13:42:23;15.30;99.90
563;DHT22;266;49.514;8.294;2023-03-23T13:45:08;15.20;99.90
563;DHT22;266;49.514;8.294;2023-03-23T13:47:40;15.20;99.90
563;DHT22;266;49.514;8.294;2023-03-23T13:50:12;15.10;99.90
563;DHT22;266;49.514;8.294;2023-03-23T13:52:50;15.10;99.90
563;DHT22;266;49.514;8.294;2023-03-23T13:55:29;15.10;99.90
563;DHT22;266;49.514;8.294;2023-03-23T13:57:57;15.00;99.90
563;DHT22;266;49.514;8.294;2023-03-23T14:00:36;14.90;99.90
563;DHT22;266;49.514;8.294;2023-03-23T14:03:10;14.90;99.90
563;DHT22;266;49.514;8.294;2023-03-23T14:05:39;15.00;99.90
563;DHT22;266;49.514;8.294;2023-03-23T14:08:20;15.10;99.90
563;DHT22;266;49.514;8.294;2023-03-23T14:10:53;15.00;99.90
563;DHT22;266;49.514;8.294;2023-03-23T14:13:25;15.10;99.90
563;DHT22;266;49.514;8.294;2023-03-23T14:15:58;15.20;99.90
563;DHT22;266;49.514;8.294;2023-03-23T14:18:32;15.30;99.90
563;DHT22;266;49.514;8.294;2023-03-23T14:21:01;15.40;99.90
563;DHT22;266;49.514;8.294;2023-03-23T14:23:31;15.40;99.90
563;DHT22;266;49.514;8.294;2023-03-23T14:26:01;15.50;99.90
563;DHT22;266;49.514;8.294;2023-03-23T14:28:36;15.50;99.90
563;DHT22;266;49.514;8.294;2023-03-23T14:31:04;15.50;99.90
563;DHT22;266;49.514;8.294;2023-03-23T14:33:31;15.60;99.90
563;DHT22;266;49.514;8.294;2023-03-23T14:35:59;15.60;99.90
563;DHT22;266;49.514;8.294;2023-03-23T14:38:27;15.60;99.90
563;DHT22;266;49.514;8.294;2023-03-23T14:41:03;15.60;99.90
563;DHT22;266;49.514;8.294;2023-03-23T14:43:31;15.50;99.90
563;DHT22;266;49.514;8.294;2023-03-23T14:46:01;15.60;99.90
563;DHT22;266;49.514;8.294;2023-03-23T14:48:30;15.50;99.90
563;DHT22;266;49.514;8.294;2023-03-23T14:50:58;15.40;99.90
563;DHT22;266;49.514;8.294;2023-03-23T14:53:31;15.40;99.90
563;DHT22;266;49.514;8.294;2023-03-23T14:56:03;15.50;99.90
563;DHT22;266;49.514;8.294;2023-03-23T14:58:30;15.40;99.90
563;DHT22;266;49.514;8.294;2023-03-23T15:01:00;15.30;99.90
563;DHT22;266;49.514;8.294;2023-03-23T15:03:30;15.30;99.90
563;DHT22;266;49.514;8.294;2023-03-23T15:06:04;15.20;99.90
563;DHT22;266;49.514;8.294;2023-03-23T15:08:33;15.10;99.90
563;DHT22;266;49.514;8.294;2023-03-23T15:11:08;15.10;99.90
563;DHT22;266;49.514;8.294;2023-03-23T15:13:42;15.10;99.90
563;DHT22;266;49.514;8.294;2023-03-23T15:16:14;15.00;99.90
563;DHT22;266;49.514;8.294;2023-03-23T15:18:49;14.90;99.90
563;DHT22;266;49.514;8.294;2023-03-23T15:21:28;14.90;99.90
563;DHT22;266;49.514;8.294;2023-03-23T15:23:55;14.90;99.90
563;DHT22;266;49.514;8.294;2023-03-23T15:26:28;14.90;99.90
563;DHT22;266;49.514;8.294;2023-03-23T15:29:12;14.90;99.90
563;DHT22;266;49.514;8.294;2023-03-23T15:31:42;14.90;99.90
563;DHT22;266;49.514;8.294;2023-03-23T15:34:18;14.90;99.90
563;DHT22;266;49.514;8.294;2023-03-23T15:36:55;14.90;99.90
563;DHT22;266;49.514;8.294;2023-03-23T15:39:23;14.90;99.90
563;DHT22;266;49.514;8.294;2023-03-23T15:41:53;15.00;99.90
563;DHT22;266;49.514;8.294;2023-03-23T15:44:27;15.00;99.90
563;DHT22;266;49.514;8.294;2023-03-23T15:47:03;15.00;99.90
563;DHT22;266;49.514;8.294;2023-03-23T15:49:31;15.00;99.90
563;DHT22;266;49.514;8.294;2023-03-23T15:51:58;15.00;99.90
563;DHT22;266;49.514;8.294;2023-03-23T15:54:30;15.10;99.90
563;DHT22;266;49.514;8.294;2023-03-23T15:56:58;15.00;99.90
563;DHT22;266;49.514;8.294;2023-03-23T15:59:26;15.00;99.90
563;DHT22;266;49.514;8.294;2023-03-23T16:01:54;14.90;99.90
563;DHT22;266;49.514;8.294;2023-03-23T16:04:23;14.90;99.90
563;DHT22;266;49.514;8.294;2023-03-23T16:06:53;15.00;99.90
563;DHT22;266;49.514;8.294;2023-03-23T16:09:22;15.00;99.90
563;DHT22;266;49.514;8.294;2023-03-23T16:11:50;15.10;99.90
563;DHT22;266;49.514;8.294;2023-03-23T16:14:19;15.00;99.90
563;DHT22;266;49.514;8.294;2023-03-23T16:16:48;15.10;99.90
563;DHT22;266;49.514;8.294;2023-03-23T16:19:18;15.10;99.90
563;DHT22;266;49.514;8.294;2023-03-23T16:21:50;15.10;99.90
563;DHT22;266;49.514;8.294;2023-03-23T16:24:18;15.10;99.90
563;DHT22;266;49.514;8.294;2023-03-23T16:26:46;15.00;99.90
563;DHT22;266;49.514;8.294;2023-03-23T16:29:15;15.00;99.90
563;DHT22;266;49.514;8.294;2023-03-23T16:32:05;15.00;99.90
563;DHT22;266;49.514;8.294;2023-03-23T16:34:33;15.00;99.90
563;DHT22;266;49.514;8.294;2023-03-23T16:37:02;14.90;99.90
563;DHT22;266;49.514;8.294;2023-03-23T16:39:32;14.90;99.90
563;DHT22;266;49.514;8.294;2023-03-23T16:42:00;14.90;99.90
563;DHT22;266;49.514;8.294;2023-03-23T16:44:28;14.90;99.90
563;DHT22;266;49.514;8.294;2023-03-23T16:46:56;14.90;99.90
563;DHT22;266;49.514;8.294;2023-03-23T16:49:25;14.90;99.90
563;DHT22;266;49.514;8.294;2023-03-23T16:51:53;14.90;99.90
563;DHT22;266;49.514;8.294;2023-03-23T16:54:21;14.90;99.90
563;DHT22;266;49.514;8.294;2023-03-23T16:56:49;14.90;99.90
563;DHT22;266;49.514;8.294;2023-03-23T16:59:17;14.90;99.90